Terminal Aerodrome Forecast
Issued by NWS

Home | Current Version | Previous Version | Text Only | Print | Product List | Glossary On
Versions: 1 2 3 4 5 6 7 8 9 10 11 12 13
000
FTUS45 KRIW 240500
TAFBPI
TAF
KBPI 240533Z 2406/2506 VRB05KT P6SM VCSH SCT025 BKN050
     FM241100 VRB05KT P6SM VCFG SCT004 BKN060
     FM241600 VRB05KT P6SM VCSH FEW020 BKN060
     FM242000 VRB10KT P6SM VCTS SCT025 BKN060CB
     FM250200 34007KT 6SM -RA BR SCT010 OVC025=

USA.gov is the U.S. government's official web portal to all federal, state and local government web resources and services.